sensor_id;sensor_type;location;lat;lon;timestamp;pressure;altitude;pressure_sealevel;temperature;humidity
17054;BME280;8643;48.824;11.422;2023-03-19T00:01:07;96603.81;;;7.05;98.61
17054;BME280;8643;48.824;11.422;2023-03-19T00:03:36;96612.91;;;6.92;99.27
17054;BME280;8643;48.824;11.422;2023-03-19T00:06:06;96606.31;;;6.84;100.00
17054;BME280;8643;48.824;11.422;2023-03-19T00:08:34;96617.50;;;6.83;100.00
17054;BME280;8643;48.824;11.422;2023-03-19T00:11:07;96605.50;;;6.84;100.00
17054;BME280;8643;48.824;11.422;2023-03-19T00:13:37;96606.63;;;6.83;100.00
17054;BME280;8643;48.824;11.422;2023-03-19T00:16:06;96607.91;;;6.76;100.00
17054;BME280;8643;48.824;11.422;2023-03-19T00:18:35;96609.00;;;6.67;100.00
17054;BME280;8643;48.824;11.422;2023-03-19T00:21:06;96611.50;;;6.63;100.00
17054;BME280;8643;48.824;11.422;2023-03-19T00:23:35;96610.06;;;6.57;100.00
17054;BME280;8643;48.824;11.422;2023-03-19T00:26:04;96607.59;;;6.47;100.00
17054;BME280;8643;48.824;11.422;2023-03-19T00:28:36;96601.19;;;6.42;100.00
17054;BME280;8643;48.824;11.422;2023-03-19T00:31:07;96605.50;;;6.43;100.00
17054;BME280;8643;48.824;11.422;2023-03-19T00:33:37;96609.97;;;6.39;100.00
17054;BME280;8643;48.824;11.422;2023-03-19T00:36:08;96596.69;;;6.38;100.00
17054;BME280;8643;48.824;11.422;2023-03-19T00:38:37;96597.34;;;6.43;100.00
17054;BME280;8643;48.824;11.422;2023-03-19T00:41:06;96597.41;;;6.52;100.00
17054;BME280;8643;48.824;11.422;2023-03-19T00:43:35;96606.03;;;6.54;100.00
17054;BME280;8643;48.824;11.422;2023-03-19T00:46:05;96615.00;;;6.55;100.00
17054;BME280;8643;48.824;11.422;2023-03-19T00:48:33;96610.47;;;6.41;100.00
17054;BME280;8643;48.824;11.422;2023-03-19T00:51:03;96613.63;;;6.35;100.00
17054;BME280;8643;48.824;11.422;2023-03-19T00:53:36;96617.03;;;6.40;100.00
17054;BME280;8643;48.824;11.422;2023-03-19T00:56:06;96615.91;;;6.41;100.00
17054;BME280;8643;48.824;11.422;2023-03-19T00:58:35;96607.09;;;6.36;100.00
17054;BME280;8643;48.824;11.422;2023-03-19T01:01:05;96613.31;;;6.36;100.00
17054;BME280;8643;48.824;11.422;2023-03-19T01:03:34;96612.78;;;6.26;100.00
17054;BME280;8643;48.824;11.422;2023-03-19T01:06:05;96607.75;;;6.10;100.00
17054;BME280;8643;48.824;11.422;2023-03-19T01:08:35;96610.28;;;6.07;100.00
17054;BME280;8643;48.824;11.422;2023-03-19T01:11:06;96609.84;;;6.13;100.00
17054;BME280;8643;48.824;11.422;2023-03-19T01:13:36;96611.00;;;6.21;100.00
17054;BME280;8643;48.824;11.422;2023-03-19T01:16:05;96611.81;;;6.21;100.00
17054;BME280;8643;48.824;11.422;2023-03-19T01:18:34;96609.41;;;6.20;100.00
17054;BME280;8643;48.824;11.422;2023-03-19T01:21:03;96602.00;;;6.12;100.00
17054;BME280;8643;48.824;11.422;2023-03-19T01:23:37;96612.78;;;6.03;100.00
17054;BME280;8643;48.824;11.422;2023-03-19T01:26:06;96608.19;;;6.03;100.00
17054;BME280;8643;48.824;11.422;2023-03-19T01:28:35;96602.59;;;5.86;100.00
17054;BME280;8643;48.824;11.422;2023-03-19T01:31:06;96603.28;;;5.92;100.00
17054;BME280;8643;48.824;11.422;2023-03-19T01:33:54;96608.63;;;5.97;100.00
17054;BME280;8643;48.824;11.422;2023-03-19T01:36:33;96606.69;;;5.97;100.00
17054;BME280;8643;48.824;11.422;2023-03-19T01:39:05;96607.50;;;5.98;100.00
17054;BME280;8643;48.824;11.422;2023-03-19T01:41:34;96610.63;;;5.91;100.00
17054;BME280;8643;48.824;11.422;2023-03-19T01:44:34;96604.97;;;5.79;100.00
17054;BME280;8643;48.824;11.422;2023-03-19T01:47:29;96609.88;;;5.77;100.00
17054;BME280;8643;48.824;11.422;2023-03-19T01:50:23;96597.53;;;5.71;100.00
17054;BME280;8643;48.824;11.422;2023-03-19T01:53:16;96606.22;;;5.59;100.00
17054;BME280;8643;48.824;11.422;2023-03-19T01:55:55;96609.56;;;5.56;100.00
17054;BME280;8643;48.824;11.422;2023-03-19T01:58:37;96616.53;;;5.48;100.00
17054;BME280;8643;48.824;11.422;2023-03-19T02:01:14;96613.81;;;5.48;100.00
17054;BME280;8643;48.824;11.422;2023-03-19T02:03:46;96623.06;;;5.47;100.00
17054;BME280;8643;48.824;11.422;2023-03-19T02:06:23;96626.22;;;5.40;100.00
17054;BME280;8643;48.824;11.422;2023-03-19T02:08:52;96614.72;;;5.43;100.00
17054;BME280;8643;48.824;11.422;2023-03-19T02:11:22;96607.25;;;5.49;100.00
17054;BME280;8643;48.824;11.422;2023-03-19T02:13:52;96610.28;;;5.47;100.00
17054;BME280;8643;48.824;11.422;2023-03-19T02:16:21;96614.97;;;5.33;100.00
17054;BME280;8643;48.824;11.422;2023-03-19T02:18:50;96618.72;;;5.23;100.00
17054;BME280;8643;48.824;11.422;2023-03-19T02:21:20;96617.09;;;5.22;100.00
17054;BME280;8643;48.824;11.422;2023-03-19T02:23:56;96616.00;;;5.23;100.00
17054;BME280;8643;48.824;11.422;2023-03-19T02:26:53;96618.50;;;5.20;100.00
17054;BME280;8643;48.824;11.422;2023-03-19T02:29:23;96616.56;;;5.34;100.00
17054;BME280;8643;48.824;11.422;2023-03-19T02:31:52;96621.69;;;5.36;100.00
17054;BME280;8643;48.824;11.422;2023-03-19T02:34:38;96624.59;;;5.39;100.00
17054;BME280;8643;48.824;11.422;2023-03-19T02:37:14;96637.50;;;5.20;100.00
17054;BME280;8643;48.824;11.422;2023-03-19T02:39:50;96633.31;;;5.00;100.00
17054;BME280;8643;48.824;11.422;2023-03-19T02:42:26;96631.88;;;5.16;100.00
17054;BME280;8643;48.824;11.422;2023-03-19T02:44:57;96629.88;;;5.22;100.00
17054;BME280;8643;48.824;11.422;2023-03-19T02:47:26;96635.31;;;5.08;100.00
17054;BME280;8643;48.824;11.422;2023-03-19T02:49:55;96631.69;;;4.99;100.00
17054;BME280;8643;48.824;11.422;2023-03-19T02:52:25;96636.94;;;4.81;100.00
17054;BME280;8643;48.824;11.422;2023-03-19T02:54:54;96632.63;;;4.80;100.00
17054;BME280;8643;48.824;11.422;2023-03-19T02:57:25;96649.69;;;4.94;100.00
17054;BME280;8643;48.824;11.422;2023-03-19T02:59:53;96645.97;;;4.90;100.00
17054;BME280;8643;48.824;11.422;2023-03-19T03:02:22;96650.31;;;4.91;100.00
17054;BME280;8643;48.824;11.422;2023-03-19T03:04:51;96651.91;;;4.92;100.00
17054;BME280;8643;48.824;11.422;2023-03-19T03:07:19;96653.22;;;4.81;100.00
17054;BME280;8643;48.824;11.422;2023-03-19T03:09:48;96651.50;;;4.71;100.00
17054;BME280;8643;48.824;11.422;2023-03-19T03:12:16;96654.81;;;4.68;100.00
17054;BME280;8643;48.824;11.422;2023-03-19T03:14:46;96658.13;;;4.79;100.00
17054;BME280;8643;48.824;11.422;2023-03-19T03:17:16;96656.81;;;4.90;100.00
17054;BME280;8643;48.824;11.422;2023-03-19T03:19:45;96659.03;;;4.88;100.00
17054;BME280;8643;48.824;11.422;2023-03-19T03:22:14;96672.09;;;4.86;100.00
17054;BME280;8643;48.824;11.422;2023-03-19T03:24:42;96673.00;;;4.82;100.00
17054;BME280;8643;48.824;11.422;2023-03-19T03:27:11;96672.22;;;4.81;100.00
17054;BME280;8643;48.824;11.422;2023-03-19T03:29:39;96671.91;;;4.83;100.00
17054;BME280;8643;48.824;11.422;2023-03-19T03:32:10;96668.91;;;4.84;100.00
17054;BME280;8643;48.824;11.422;2023-03-19T03:34:38;96665.06;;;4.85;100.00
17054;BME280;8643;48.824;11.422;2023-03-19T03:37:07;96657.75;;;4.86;100.00
17054;BME280;8643;48.824;11.422;2023-03-19T03:39:35;96667.19;;;4.88;100.00
17054;BME280;8643;48.824;11.422;2023-03-19T03:42:04;96659.53;;;4.90;100.00
17054;BME280;8643;48.824;11.422;2023-03-19T03:44:34;96668.59;;;5.00;100.00
17054;BME280;8643;48.824;11.422;2023-03-19T03:47:03;96670.59;;;4.80;100.00
17054;BME280;8643;48.824;11.422;2023-03-19T03:49:33;96675.63;;;4.73;100.00
17054;BME280;8643;48.824;11.422;2023-03-19T03:52:02;96663.25;;;4.67;100.00
17054;BME280;8643;48.824;11.422;2023-03-19T03:54:31;96668.78;;;4.75;100.00
17054;BME280;8643;48.824;11.422;2023-03-19T03:56:59;96670.59;;;4.66;100.00
17054;BME280;8643;48.824;11.422;2023-03-19T03:59:30;96667.06;;;4.66;100.00
17054;BME280;8643;48.824;11.422;2023-03-19T04:01:58;96671.88;;;4.69;100.00
17054;BME280;8643;48.824;11.422;2023-03-19T04:04:27;96672.28;;;4.62;100.00
17054;BME280;8643;48.824;11.422;2023-03-19T04:06:58;96663.84;;;4.64;100.00
17054;BME280;8643;48.824;11.422;2023-03-19T04:09:48;96668.78;;;4.62;100.00
17054;BME280;8643;48.824;11.422;2023-03-19T04:12:17;96669.78;;;4.66;100.00
17054;BME280;8643;48.824;11.422;2023-03-19T04:14:46;96668.47;;;4.63;100.00
17054;BME280;8643;48.824;11.422;2023-03-19T04:17:15;96666.47;;;4.69;100.00
17054;BME280;8643;48.824;11.422;2023-03-19T04:19:44;96674.31;;;4.84;100.00
17054;BME280;8643;48.824;11.422;2023-03-19T04:22:14;96668.38;;;5.10;100.00
17054;BME280;8643;48.824;11.422;2023-03-19T04:24:43;96676.22;;;5.11;100.00
17054;BME280;8643;48.824;11.422;2023-03-19T04:27:12;96678.75;;;5.22;100.00
17054;BME280;8643;48.824;11.422;2023-03-19T04:29:41;96674.47;;;5.29;100.00
17054;BME280;8643;48.824;11.422;2023-03-19T04:32:10;96669.84;;;5.44;100.00
17054;BME280;8643;48.824;11.422;2023-03-19T04:34:38;96675.38;;;5.39;100.00
17054;BME280;8643;48.824;11.422;2023-03-19T04:37:08;96673.47;;;5.39;100.00
17054;BME280;8643;48.824;11.422;2023-03-19T04:39:45;96678.47;;;5.46;100.00
17054;BME280;8643;48.824;11.422;2023-03-19T04:42:14;96683.13;;;5.45;100.00
17054;BME280;8643;48.824;11.422;2023-03-19T04:45:02;96674.28;;;5.26;100.00
17054;BME280;8643;48.824;11.422;2023-03-19T04:47:31;96677.19;;;5.29;100.00
17054;BME280;8643;48.824;11.422;2023-03-19T04:50:00;96682.31;;;5.31;100.00
17054;BME280;8643;48.824;11.422;2023-03-19T04:52:32;96677.50;;;5.42;100.00
17054;BME280;8643;48.824;11.422;2023-03-19T04:55:04;96689.66;;;5.44;100.00
17054;BME280;8643;48.824;11.422;2023-03-19T04:57:44;96690.41;;;5.59;100.00
17054;BME280;8643;48.824;11.422;2023-03-19T05:00:14;96691.25;;;5.59;100.00
17054;BME280;8643;48.824;11.422;2023-03-19T05:02:45;96722.66;;;5.88;100.00
17054;BME280;8643;48.824;11.422;2023-03-19T05:05:15;96720.09;;;5.69;100.00
17054;BME280;8643;48.824;11.422;2023-03-19T05:07:44;96721.91;;;5.60;100.00
17054;BME280;8643;48.824;11.422;2023-03-19T05:10:15;96718.19;;;5.69;100.00
17054;BME280;8643;48.824;11.422;2023-03-19T05:12:43;96720.78;;;5.75;100.00
17054;BME280;8643;48.824;11.422;2023-03-19T05:15:14;96726.22;;;5.75;100.00
17054;BME280;8643;48.824;11.422;2023-03-19T05:18:00;96731.16;;;5.73;100.00
17054;BME280;8643;48.824;11.422;2023-03-19T05:20:36;96732.38;;;5.66;100.00
17054;BME280;8643;48.824;11.422;2023-03-19T05:23:13;96728.66;;;5.62;100.00
17054;BME280;8643;48.824;11.422;2023-03-19T05:25:47;96739.31;;;5.59;100.00
17054;BME280;8643;48.824;11.422;2023-03-19T05:28:23;96735.91;;;5.53;100.00
17054;BME280;8643;48.824;11.422;2023-03-19T05:30:51;96734.50;;;5.56;100.00
17054;BME280;8643;48.824;11.422;2023-03-19T05:33:28;96744.06;;;5.53;100.00
17054;BME280;8643;48.824;11.422;2023-03-19T05:35:57;96745.97;;;5.53;100.00
17054;BME280;8643;48.824;11.422;2023-03-19T05:38:41;96750.00;;;5.55;100.00
17054;BME280;8643;48.824;11.422;2023-03-19T05:41:17;96744.06;;;5.53;100.00
17054;BME280;8643;48.824;11.422;2023-03-19T05:44:13;96745.28;;;5.47;100.00
17054;BME280;8643;48.824;11.422;2023-03-19T05:46:48;96756.84;;;5.53;100.00
17054;BME280;8643;48.824;11.422;2023-03-19T05:49:20;96753.91;;;5.63;100.00
17054;BME280;8643;48.824;11.422;2023-03-19T05:51:49;96756.31;;;5.64;100.00
17054;BME280;8643;48.824;11.422;2023-03-19T05:54:17;96762.16;;;5.58;100.00
17054;BME280;8643;48.824;11.422;2023-03-19T05:57:00;96770.03;;;5.59;100.00
17054;BME280;8643;48.824;11.422;2023-03-19T05:59:33;96767.38;;;5.68;100.00
17054;BME280;8643;48.824;11.422;2023-03-19T06:02:21;96768.28;;;5.63;100.00
17054;BME280;8643;48.824;11.422;2023-03-19T06:04:57;96766.78;;;5.71;100.00
17054;BME280;8643;48.824;11.422;2023-03-19T06:07:28;96767.47;;;5.77;100.00
17054;BME280;8643;48.824;11.422;2023-03-19T06:09:59;96769.69;;;5.75;100.00
17054;BME280;8643;48.824;11.422;2023-03-19T06:12:29;96775.81;;;5.80;100.00
17054;BME280;8643;48.824;11.422;2023-03-19T06:15:15;96777.53;;;5.90;100.00
17054;BME280;8643;48.824;11.422;2023-03-19T06:17:43;96782.75;;;6.00;100.00
17054;BME280;8643;48.824;11.422;2023-03-19T06:20:16;96797.22;;;5.96;100.00
17054;BME280;8643;48.824;11.422;2023-03-19T06:22:45;96808.22;;;5.91;100.00
17054;BME280;8643;48.824;11.422;2023-03-19T06:25:13;96808.41;;;5.94;100.00
17054;BME280;8643;48.824;11.422;2023-03-19T06:27:43;96815.66;;;5.99;100.00
17054;BME280;8643;48.824;11.422;2023-03-19T06:30:22;96825.00;;;5.93;100.00
17054;BME280;8643;48.824;11.422;2023-03-19T06:32:52;96831.75;;;5.95;100.00
17054;BME280;8643;48.824;11.422;2023-03-19T06:35:21;96824.91;;;6.12;100.00
17054;BME280;8643;48.824;11.422;2023-03-19T06:37:51;96833.25;;;6.29;100.00
17054;BME280;8643;48.824;11.422;2023-03-19T06:40:20;96833.84;;;6.26;100.00
17054;BME280;8643;48.824;11.422;2023-03-19T06:42:50;96844.00;;;6.34;100.00
17054;BME280;8643;48.824;11.422;2023-03-19T06:45:19;96848.59;;;6.48;100.00
17054;BME280;8643;48.824;11.422;2023-03-19T06:47:47;96855.25;;;6.41;100.00
17054;BME280;8643;48.824;11.422;2023-03-19T06:50:19;96851.19;;;6.53;100.00
17054;BME280;8643;48.824;11.422;2023-03-19T06:52:47;96852.09;;;6.48;100.00
17054;BME280;8643;48.824;11.422;2023-03-19T06:55:16;96854.34;;;6.46;100.00
17054;BME280;8643;48.824;11.422;2023-03-19T06:57:49;96859.28;;;6.44;100.00
17054;BME280;8643;48.824;11.422;2023-03-19T07:00:19;96860.78;;;6.50;100.00
17054;BME280;8643;48.824;11.422;2023-03-19T07:02:47;96867.63;;;6.48;100.00
17054;BME280;8643;48.824;11.422;2023-03-19T07:05:16;96871.97;;;6.49;100.00
17054;BME280;8643;48.824;11.422;2023-03-19T07:07:45;96871.53;;;6.55;100.00
17054;BME280;8643;48.824;11.422;2023-03-19T07:10:13;96881.59;;;6.55;100.00
17054;BME280;8643;48.824;11.422;2023-03-19T07:12:42;96891.88;;;6.58;100.00
17054;BME280;8643;48.824;11.422;2023-03-19T07:15:12;96888.16;;;6.54;100.00
17054;BME280;8643;48.824;11.422;2023-03-19T07:17:41;96897.72;;;6.51;100.00
17054;BME280;8643;48.824;11.422;2023-03-19T07:20:12;96896.81;;;6.56;100.00
17054;BME280;8643;48.824;11.422;2023-03-19T07:22:41;96894.81;;;6.48;100.00
17054;BME280;8643;48.824;11.422;2023-03-19T07:25:10;96893.03;;;6.43;100.00
17054;BME280;8643;48.824;11.422;2023-03-19T07:27:38;96889.69;;;6.46;100.00
17054;BME280;8643;48.824;11.422;2023-03-19T07:30:08;96897.16;;;6.40;100.00
17054;BME280;8643;48.824;11.422;2023-03-19T07:32:39;96895.25;;;6.41;100.00
17054;BME280;8643;48.824;11.422;2023-03-19T07:35:09;96897.66;;;6.42;100.00
17054;BME280;8643;48.824;11.422;2023-03-19T07:37:38;96895.44;;;6.45;100.00
17054;BME280;8643;48.824;11.422;2023-03-19T07:40:09;96895.72;;;6.57;100.00
17054;BME280;8643;48.824;11.422;2023-03-19T07:42:38;96893.00;;;6.57;100.00
17054;BME280;8643;48.824;11.422;2023-03-19T07:45:09;96898.13;;;6.81;100.00
17054;BME280;8643;48.824;11.422;2023-03-19T07:47:39;96909.13;;;6.90;100.00
17054;BME280;8643;48.824;11.422;2023-03-19T07:50:09;96901.13;;;6.93;100.00
17054;BME280;8643;48.824;11.422;2023-03-19T07:52:38;96913.06;;;7.06;100.00
17054;BME280;8643;48.824;11.422;2023-03-19T07:55:07;96909.47;;;7.20;100.00
17054;BME280;8643;48.824;11.422;2023-03-19T07:57:36;96911.75;;;7.26;100.00
17054;BME280;8643;48.824;11.422;2023-03-19T08:00:07;96905.53;;;7.26;100.00
17054;BME280;8643;48.824;11.422;2023-03-19T08:02:41;96908.84;;;7.45;100.00
17054;BME280;8643;48.824;11.422;2023-03-19T08:05:10;96909.34;;;7.56;100.00
17054;BME280;8643;48.824;11.422;2023-03-19T08:07:39;96907.78;;;7.55;100.00
17054;BME280;8643;48.824;11.422;2023-03-19T08:10:10;96903.50;;;7.63;100.00
17054;BME280;8643;48.824;11.422;2023-03-19T08:12:39;96909.09;;;7.66;100.00
17054;BME280;8643;48.824;11.422;2023-03-19T08:15:10;96907.34;;;7.70;100.00
17054;BME280;8643;48.824;11.422;2023-03-19T08:17:40;96910.84;;;7.62;100.00
17054;BME280;8643;48.824;11.422;2023-03-19T08:20:12;96912.16;;;7.65;100.00
17054;BME280;8643;48.824;11.422;2023-03-19T08:22:42;96916.97;;;7.68;100.00
17054;BME280;8643;48.824;11.422;2023-03-19T08:25:11;96918.09;;;7.67;100.00
17054;BME280;8643;48.824;11.422;2023-03-19T08:27:40;96923.22;;;7.68;100.00
17054;BME280;8643;48.824;11.422;2023-03-19T08:30:11;96914.88;;;7.65;100.00
17054;BME280;8643;48.824;11.422;2023-03-19T08:32:41;96926.25;;;7.67;100.00
17054;BME280;8643;48.824;11.422;2023-03-19T08:35:12;96922.59;;;7.71;100.00
17054;BME280;8643;48.824;11.422;2023-03-19T08:37:41;96923.91;;;7.74;100.00
17054;BME280;8643;48.824;11.422;2023-03-19T08:40:10;96925.66;;;7.79;100.00
17054;BME280;8643;48.824;11.422;2023-03-19T08:42:39;96922.81;;;7.84;100.00
17054;BME280;8643;48.824;11.422;2023-03-19T08:45:13;96921.03;;;7.79;100.00
17054;BME280;8643;48.824;11.422;2023-03-19T08:47:43;96921.03;;;7.79;100.00
17054;BME280;8643;48.824;11.422;2023-03-19T08:50:12;96917.53;;;7.87;100.00
17054;BME280;8643;48.824;11.422;2023-03-19T08:52:41;96910.00;;;7.93;100.00
17054;BME280;8643;48.824;11.422;2023-03-19T08:55:11;96898.97;;;7.98;100.00
17054;BME280;8643;48.824;11.422;2023-03-19T08:57:39;96891.59;;;7.99;100.00
17054;BME280;8643;48.824;11.422;2023-03-19T09:00:09;96899.00;;;8.07;100.00
17054;BME280;8643;48.824;11.422;2023-03-19T09:02:38;96907.34;;;8.11;100.00
17054;BME280;8643;48.824;11.422;2023-03-19T09:05:08;96917.00;;;8.17;100.00
17054;BME280;8643;48.824;11.422;2023-03-19T09:07:37;96933.53;;;8.29;100.00
17054;BME280;8643;48.824;11.422;2023-03-19T09:10:06;96938.06;;;8.34;100.00
17054;BME280;8643;48.824;11.422;2023-03-19T09:12:35;96941.34;;;8.44;100.00
17054;BME280;8643;48.824;11.422;2023-03-19T09:15:05;96948.56;;;8.49;100.00
17054;BME280;8643;48.824;11.422;2023-03-19T09:17:33;96947.78;;;8.57;100.00
17054;BME280;8643;48.824;11.422;2023-03-19T09:20:03;96949.88;;;8.60;100.00
17054;BME280;8643;48.824;11.422;2023-03-19T09:22:35;96954.69;;;8.63;100.00
17054;BME280;8643;48.824;11.422;2023-03-19T09:25:04;96963.69;;;8.64;100.00
17054;BME280;8643;48.824;11.422;2023-03-19T09:27:33;96955.50;;;8.64;100.00
17054;BME280;8643;48.824;11.422;2023-03-19T09:30:02;96958.06;;;8.60;100.00
17054;BME280;8643;48.824;11.422;2023-03-19T09:32:31;96961.28;;;8.62;100.00
17054;BME280;8643;48.824;11.422;2023-03-19T09:34:59;96964.50;;;8.73;100.00
17054;BME280;8643;48.824;11.422;2023-03-19T09:37:30;96966.25;;;8.69;100.00
17054;BME280;8643;48.824;11.422;2023-03-19T09:40:00;96958.41;;;8.68;100.00
17054;BME280;8643;48.824;11.422;2023-03-19T09:42:51;96970.25;;;8.63;100.00
17054;BME280;8643;48.824;11.422;2023-03-19T09:45:23;96959.97;;;8.60;100.00
17054;BME280;8643;48.824;11.422;2023-03-19T09:47:59;96955.34;;;8.60;100.00
17054;BME280;8643;48.824;11.422;2023-03-19T09:50:32;96962.53;;;8.56;100.00
17054;BME280;8643;48.824;11.422;2023-03-19T09:53:11;96963.53;;;8.60;100.00
17054;BME280;8643;48.824;11.422;2023-03-19T09:55:49;96956.44;;;8.59;100.00
17054;BME280;8643;48.824;11.422;2023-03-19T09:58:21;96953.41;;;8.70;100.00
17054;BME280;8643;48.824;11.422;2023-03-19T10:00:52;96946.38;;;8.69;100.00
17054;BME280;8643;48.824;11.422;2023-03-19T10:03:42;96944.25;;;8.74;100.00
17054;BME280;8643;48.824;11.422;2023-03-19T10:06:25;96942.00;;;8.76;100.00
17054;BME280;8643;48.824;11.422;2023-03-19T10:09:38;96948.63;;;8.75;100.00
17054;BME280;8643;48.824;11.422;2023-03-19T10:12:22;96944.13;;;8.88;100.00
17054;BME280;8643;48.824;11.422;2023-03-19T10:15:13;96962.44;;;9.05;100.00
17054;BME280;8643;48.824;11.422;2023-03-19T10:17:53;96952.78;;;9.25;100.00
17054;BME280;8643;48.824;11.422;2023-03-19T10:20:38;96955.00;;;9.49;100.00
17054;BME280;8643;48.824;11.422;2023-03-19T10:23:30;96956.44;;;9.73;100.00
17054;BME280;8643;48.824;11.422;2023-03-19T10:26:04;96947.63;;;9.97;100.00
17054;BME280;8643;48.824;11.422;2023-03-19T10:28:36;96951.28;;;10.19;100.00
17054;BME280;8643;48.824;11.422;2023-03-19T10:31:26;96956.84;;;10.31;100.00
17054;BME280;8643;48.824;11.422;2023-03-19T10:34:13;96954.91;;;10.32;100.00
17054;BME280;8643;48.824;11.422;2023-03-19T10:36:46;96950.50;;;10.48;100.00
17054;BME280;8643;48.824;11.422;2023-03-19T10:39:17;96950.75;;;10.85;100.00
17054;BME280;8643;48.824;11.422;2023-03-19T10:41:56;96947.00;;;10.90;100.00
17054;BME280;8643;48.824;11.422;2023-03-19T10:44:32;96959.47;;;11.08;100.00
17054;BME280;8643;48.824;11.422;2023-03-19T10:47:10;96956.66;;;11.50;100.00
17054;BME280;8643;48.824;11.422;2023-03-19T10:49:40;96954.63;;;11.60;100.00
17054;BME280;8643;48.824;11.422;2023-03-19T10:52:20;96957.41;;;12.30;100.00
17054;BME280;8643;48.824;11.422;2023-03-19T10:54:56;96960.56;;;12.94;100.00
17054;BME280;8643;48.824;11.422;2023-03-19T10:57:29;96957.28;;;13.69;100.00
17054;BME280;8643;48.824;11.422;2023-03-19T11:00:05;96958.78;;;13.26;100.00
17054;BME280;8643;48.824;11.422;2023-03-19T11:02:45;96958.31;;;12.96;100.00
17054;BME280;8643;48.824;11.422;2023-03-19T11:05:29;96956.91;;;13.43;100.00
17054;BME280;8643;48.824;11.422;2023-03-19T11:08:01;96959.34;;;13.32;100.00
17054;BME280;8643;48.824;11.422;2023-03-19T11:10:33;96948.94;;;12.84;100.00
17054;BME280;8643;48.824;11.422;2023-03-19T11:13:05;96954.91;;;13.15;100.00
17054;BME280;8643;48.824;11.422;2023-03-19T11:15:37;96958.09;;;13.29;100.00
17054;BME280;8643;48.824;11.422;2023-03-19T11:18:15;96944.72;;;14.00;100.00
17054;BME280;8643;48.824;11.422;2023-03-19T11:20:53;96944.78;;;14.36;100.00
17054;BME280;8643;48.824;11.422;2023-03-19T11:23:26;96938.56;;;14.55;100.00
17054;BME280;8643;48.824;11.422;2023-03-19T11:25:59;96940.16;;;14.56;100.00
17054;BME280;8643;48.824;11.422;2023-03-19T11:28:29;96941.31;;;14.39;100.00
17054;BME280;8643;48.824;11.422;2023-03-19T11:31:12;96937.25;;;14.33;100.00
17054;BME280;8643;48.824;11.422;2023-03-19T11:33:57;96931.66;;;13.97;100.00
17054;BME280;8643;48.824;11.422;2023-03-19T11:36:41;96926.41;;;14.24;100.00
17054;BME280;8643;48.824;11.422;2023-03-19T11:39:27;96926.19;;;13.53;100.00
17054;BME280;8643;48.824;11.422;2023-03-19T11:42:34;96921.38;;;14.26;100.00
17054;BME280;8643;48.824;11.422;2023-03-19T11:45:21;96919.44;;;14.78;100.00
17054;BME280;8643;48.824;11.422;2023-03-19T11:48:19;96909.53;;;14.93;100.00
17054;BME280;8643;48.824;11.422;2023-03-19T11:50:57;96907.78;;;15.43;94.91
17054;BME280;8643;48.824;11.422;2023-03-19T11:53:33;96899.97;;;14.71;95.38
17054;BME280;8643;48.824;11.422;2023-03-19T11:56:17;96902.09;;;14.10;100.00
17054;BME280;8643;48.824;11.422;2023-03-19T11:59:12;96901.59;;;13.32;100.00
17054;BME280;8643;48.824;11.422;2023-03-19T12:05:29;96892.38;;;13.68;100.00
17054;BME280;8643;48.824;11.422;2023-03-19T12:08:22;96888.06;;;13.39;100.00
17054;BME280;8643;48.824;11.422;2023-03-19T12:11:08;96898.63;;;13.37;100.00
17054;BME280;8643;48.824;11.422;2023-03-19T12:13:58;96894.78;;;13.70;100.00
17054;BME280;8643;48.824;11.422;2023-03-19T12:16:48;96893.03;;;13.93;100.00
17054;BME280;8643;48.824;11.422;2023-03-19T12:19:43;96891.75;;;14.90;96.05
17054;BME280;8643;48.824;11.422;2023-03-19T12:22:31;96889.56;;;14.80;95.95
17054;BME280;8643;48.824;11.422;2023-03-19T12:25:29;96885.22;;;16.03;88.71
17054;BME280;8643;48.824;11.422;2023-03-19T12:28:12;96885.81;;;17.23;89.44
17054;BME280;8643;48.824;11.422;2023-03-19T12:30:59;96874.28;;;18.37;76.68
17054;BME280;8643;48.824;11.422;2023-03-19T12:33:45;96876.25;;;18.37;77.12
17054;BME280;8643;48.824;11.422;2023-03-19T12:36:22;96881.88;;;19.10;73.86
17054;BME280;8643;48.824;11.422;2023-03-19T12:39:01;96873.34;;;17.77;70.42
17054;BME280;8643;48.824;11.422;2023-03-19T12:41:39;96873.41;;;17.85;74.45
17054;BME280;8643;48.824;11.422;2023-03-19T12:44:12;96864.81;;;17.93;72.97
17054;BME280;8643;48.824;11.422;2023-03-19T12:46:49;96864.31;;;18.92;70.41
17054;BME280;8643;48.824;11.422;2023-03-19T12:49:27;96859.41;;;19.55;68.06
17054;BME280;8643;48.824;11.422;2023-03-19T12:52:04;96868.25;;;20.11;65.22
17054;BME280;8643;48.824;11.422;2023-03-19T12:54:40;96851.09;;;19.62;65.26
17054;BME280;8643;48.824;11.422;2023-03-19T12:57:20;96854.44;;;18.94;66.65
17054;BME280;8643;48.824;11.422;2023-03-19T12:59:57;96849.75;;;18.43;67.01
17054;BME280;8643;48.824;11.422;2023-03-19T13:02:36;96853.69;;;19.08;67.60
17054;BME280;8643;48.824;11.422;2023-03-19T13:05:18;96849.88;;;18.61;65.58
17054;BME280;8643;48.824;11.422;2023-03-19T13:08:01;96855.63;;;18.34;62.78
17054;BME280;8643;48.824;11.422;2023-03-19T13:10:32;96847.78;;;17.91;65.65
17054;BME280;8643;48.824;11.422;2023-03-19T13:13:17;96852.69;;;18.64;66.39
17054;BME280;8643;48.824;11.422;2023-03-19T13:15:55;96853.03;;;19.33;61.44
17054;BME280;8643;48.824;11.422;2023-03-19T13:18:37;96853.47;;;19.56;61.91
17054;BME280;8643;48.824;11.422;2023-03-19T13:21:21;96857.94;;;20.33;60.71
17054;BME280;8643;48.824;11.422;2023-03-19T13:24:05;96845.88;;;19.35;57.29
17054;BME280;8643;48.824;11.422;2023-03-19T13:26:39;96857.31;;;16.62;66.13
17054;BME280;8643;48.824;11.422;2023-03-19T13:29:17;96856.97;;;15.44;72.32
17054;BME280;8643;48.824;11.422;2023-03-19T13:31:48;96855.69;;;14.99;75.46
17054;BME280;8643;48.824;11.422;2023-03-19T13:34:24;96853.41;;;14.65;78.91
17054;BME280;8643;48.824;11.422;2023-03-19T13:37:00;96852.66;;;14.33;76.71
17054;BME280;8643;48.824;11.422;2023-03-19T13:39:32;96846.44;;;14.36;77.17